Delta Billie — WDE8059 — position and weather

sailwx.info

Track history (hours):
 
Tides and Currents Weather Stations Pressure Air Temp Water Temp Dewpoint Dewpoint Depression Visibility Wind Speed Wind Dir Waves Ship Positions

Delta Billie

Owner: Baydelta Maritime, San Francicso, CA. More information available from US FCC via Universal Licensing System and Coast Guard Vessel Documentation Center.

Last reported at 2014-Nov-21 01:33 UTC. Time now 2014-Nov-21 02:31 UTC.
Position N 37°48' W 122°24'.

Length 30 m; draft 5.5 m.

Type: Towing. MMSI: 367401030.

Date/timePositionNaut miles runAvg speedWind from/ knotsBaromVisibWave heightAir tempDewpointWater temp
2014-Nov-21 01:33N 37°48' W 122°24'0 0.0
2014-Nov-21 00:33N 37°48' W 122°24'0 0.0
2014-Nov-20 23:33N 37°48' W 122°24'0 0.0
2014-Nov-20 22:33N 37°48' W 122°24'0 0.0
2014-Nov-20 21:33N 37°48' W 122°24'1 0.7
2014-Nov-20 20:33N 37°49' W 122°24'1010.0
2014-Nov-20 19:33N 37°59' W 122°26'11 8.4
2014-Nov-20 18:15N 38°04' W 122°13'4 4.5
2014-Nov-20 17:28N 38°02' W 122°09'0 0.0
2014-Nov-20 15:19N 38°02' W 122°09'0 0.0
2014-Nov-20 06:31N 38°02' W 122°09'1 0.1
2014-Nov-19 21:33N 38°02' W 122°10'0 0.0
2014-Nov-19 17:21N 38°02' W 122°09'0 0.0
2014-Nov-19 16:27N 38°02' W 122°09'4 0.5
2014-Nov-19 08:32N 38°04' W 122°15'5 0.9
2014-Nov-19 03:32N 38°02' W 122°09'1 0.0
2014-Nov-18 05:06N 38°02' W 122°08'0 0.0
2014-Nov-17 19:07N 38°02' W 122°08'0 0.7
2014-Nov-17 18:33N 38°02' W 122°09'6 5.7
2014-Nov-17 17:33N 38°04' W 122°15'6 5.4
2014-Nov-17 16:30N 38°02' W 122°22'5 5.0
2014-Nov-17 15:33N 37°58' W 122°26'6 6.0
2014-Nov-17 14:33N 37°52' W 122°25'5 5.2
2014-Nov-17 13:33N 37°48' W 122°22'2 1.8
2014-Nov-17 12:33N 37°46' W 122°21'2 1.7
2014-Nov-17 11:33N 37°47' W 122°22'2 1.5
2014-Nov-17 10:33N 37°48' W 122°24'0 0.0
2014-Nov-17 09:33N 37°48' W 122°24'0 0.0
2014-Nov-17 08:33N 37°48' W 122°24'0 0.0
2014-Nov-17 07:33N 37°48' W 122°24'0 0.0
2014-Nov-17 06:33N 37°48' W 122°24'2 1.9
2014-Nov-17 05:33N 37°49' W 122°26'2 2.1
2014-Nov-17 04:33N 37°49' W 122°29'7 6.8
2014-Nov-17 03:34N 37°55' W 122°25'1 1.2
2014-Nov-17 02:33N 37°54' W 122°25'6 6.2
2014-Nov-17 01:33N 37°48' W 122°24'0 0.0
2014-Nov-17 00:33N 37°48' W 122°24'0 0.0
2014-Nov-16 23:33N 37°48' W 122°24'0 0.0
2014-Nov-16 22:33N 37°48' W 122°24'1 0.7
2014-Nov-16 21:33N 37°48' W 122°23'1 1.3
2014-Nov-16 20:33N 37°47' W 122°22'9 9.1
2014-Nov-16 19:33N 37°55' W 122°27'1010.1
2014-Nov-16 18:33N 38°03' W 122°19'8 7.9
2014-Nov-16 17:32N 38°02' W 122°09'1 0.3
2014-Nov-16 14:21N 38°02' W 122°08'10 1.1
2014-Nov-16 05:18N 38°02' W 122°21'7 9.2
2014-Nov-16 04:33N 37°56' W 122°26'7 7.5
2014-Nov-16 03:33N 37°49' W 122°29'2 2.1
2014-Nov-16 02:33N 37°50' W 122°26'7 7.4
2014-Nov-16 01:33N 37°57' W 122°27'8 7.7
2014-Nov-16 00:33N 38°03' W 122°20'9 7.9
2014-Nov-15 23:23N 38°02' W 122°08'5 0.6
2014-Nov-15 15:32N 38°04' W 122°14'1 1.3
2014-Nov-15 14:33N 38°04' W 122°12'1 0.0
2014-Nov-14 15:26N 38°03' W 122°11'3 0.4
2014-Nov-14 09:11N 38°03' W 122°15'6 7.7
2014-Nov-14 08:22N 38°01' W 122°22'7 8.6
2014-Nov-14 07:33N 37°55' W 122°25'1010.2
2014-Nov-14 06:33N 37°45' W 122°22'2 2.0
2014-Nov-14 05:33N 37°47' W 122°22'9 8.5
2014-Nov-14 04:33N 37°55' W 122°25'0 0.3
2014-Nov-14 03:34N 37°56' W 122°25'0 0.0
2014-Nov-14 02:33N 37°56' W 122°25'0 0.0
2014-Nov-14 01:33N 37°56' W 122°25'0 0.0
2014-Nov-14 00:33N 37°56' W 122°25'5 5.4
2014-Nov-13 23:33N 38°01' W 122°24'12 9.1
2014-Nov-13 22:13N 38°02' W 122°08'6 3.6
2014-Nov-13 20:33N 38°03' W 122°16'0 0.0
2014-Nov-13 19:34N 38°04' W 122°16'2 0.1
2014-Nov-12 10:21N 38°03' W 122°18'810.6
2014-Nov-12 09:33N 37°57' W 122°26'2 1.9
2014-Nov-12 08:33N 37°56' W 122°25'3 3.1
2014-Nov-12 07:33N 37°52' W 122°25'7 7.5
2014-Nov-12 06:33N 37°60' W 122°25'8 1.6
2014-Nov-12 01:33N 38°03' W 122°16'0 0.0
2014-Nov-12 00:33N 38°03' W 122°16'1 0.6
2014-Nov-11 23:22N 38°04' W 122°17'3 1.0
2014-Nov-11 20:31N 38°02' W 122°20'8 8.3
2014-Nov-11 19:33N 37°55' W 122°25'2 1.7
2014-Nov-11 18:33N 37°54' W 122°25'2 1.6
2014-Nov-11 17:33N 37°55' W 122°26'9 9.1
2014-Nov-11 16:33N 38°03' W 122°20'4 3.6
2014-Nov-11 15:19N 38°04' W 122°15'1 1.6
2014-Nov-11 14:32N 38°04' W 122°16'6 5.9
2014-Nov-11 13:29N 38°02' W 122°09'  
Track history (hours):
 
Tides and Currents Weather Stations Pressure Air Temp Water Temp Dewpoint Dewpoint Depression Visibility Wind Speed Wind Dir Waves Ship Positions

Delta Billie

Owner: Baydelta Maritime, San Francicso, CA. More information available from US FCC via Universal Licensing System and Coast Guard Vessel Documentation Center.

Last reported at 2014-Nov-21 01:33 UTC. Time now 2014-Nov-21 02:31 UTC.
Position N 37°48' W 122°24'.

Length 30 m; draft 5.5 m.

Type: Towing. MMSI: 367401030.

Date/timePositionNaut miles runAvg speedWind from/ knotsBaromVisibWave heightAir tempDewpointWater temp
2014-Nov-21 01:33N 37°48' W 122°24'0 0.0
2014-Nov-21 00:33N 37°48' W 122°24'0 0.0
2014-Nov-20 23:33N 37°48' W 122°24'0 0.0
2014-Nov-20 22:33N 37°48' W 122°24'0 0.0
2014-Nov-20 21:33N 37°48' W 122°24'1 0.7
2014-Nov-20 20:33N 37°49' W 122°24'1010.0
2014-Nov-20 19:33N 37°59' W 122°26'11 8.4
2014-Nov-20 18:15N 38°04' W 122°13'4 4.5
2014-Nov-20 17:28N 38°02' W 122°09'0 0.0
2014-Nov-20 15:19N 38°02' W 122°09'0 0.0
2014-Nov-20 06:31N 38°02' W 122°09'1 0.1
2014-Nov-19 21:33N 38°02' W 122°10'0 0.0
2014-Nov-19 17:21N 38°02' W 122°09'0 0.0
2014-Nov-19 16:27N 38°02' W 122°09'4 0.5
2014-Nov-19 08:32N 38°04' W 122°15'5 0.9
2014-Nov-19 03:32N 38°02' W 122°09'1 0.0
2014-Nov-18 05:06N 38°02' W 122°08'0 0.0
2014-Nov-17 19:07N 38°02' W 122°08'0 0.7
2014-Nov-17 18:33N 38°02' W 122°09'6 5.7
2014-Nov-17 17:33N 38°04' W 122°15'6 5.4
2014-Nov-17 16:30N 38°02' W 122°22'5 5.0
2014-Nov-17 15:33N 37°58' W 122°26'6 6.0
2014-Nov-17 14:33N 37°52' W 122°25'5 5.2
2014-Nov-17 13:33N 37°48' W 122°22'2 1.8
2014-Nov-17 12:33N 37°46' W 122°21'2 1.7
2014-Nov-17 11:33N 37°47' W 122°22'2 1.5
2014-Nov-17 10:33N 37°48' W 122°24'0 0.0
2014-Nov-17 09:33N 37°48' W 122°24'0 0.0
2014-Nov-17 08:33N 37°48' W 122°24'0 0.0
2014-Nov-17 07:33N 37°48' W 122°24'0 0.0
2014-Nov-17 06:33N 37°48' W 122°24'2 1.9
2014-Nov-17 05:33N 37°49' W 122°26'2 2.1
2014-Nov-17 04:33N 37°49' W 122°29'7 6.8
2014-Nov-17 03:34N 37°55' W 122°25'1 1.2
2014-Nov-17 02:33N 37°54' W 122°25'6 6.2
2014-Nov-17 01:33N 37°48' W 122°24'0 0.0
2014-Nov-17 00:33N 37°48' W 122°24'0 0.0
2014-Nov-16 23:33N 37°48' W 122°24'0 0.0
2014-Nov-16 22:33N 37°48' W 122°24'1 0.7
2014-Nov-16 21:33N 37°48' W 122°23'1 1.3
2014-Nov-16 20:33N 37°47' W 122°22'9 9.1
2014-Nov-16 19:33N 37°55' W 122°27'1010.1
2014-Nov-16 18:33N 38°03' W 122°19'8 7.9
2014-Nov-16 17:32N 38°02' W 122°09'1 0.3
2014-Nov-16 14:21N 38°02' W 122°08'10 1.1
2014-Nov-16 05:18N 38°02' W 122°21'7 9.2
2014-Nov-16 04:33N 37°56' W 122°26'7 7.5
2014-Nov-16 03:33N 37°49' W 122°29'2 2.1
2014-Nov-16 02:33N 37°50' W 122°26'7 7.4
2014-Nov-16 01:33N 37°57' W 122°27'8 7.7
2014-Nov-16 00:33N 38°03' W 122°20'9 7.9
2014-Nov-15 23:23N 38°02' W 122°08'5 0.6
2014-Nov-15 15:32N 38°04' W 122°14'1 1.3
2014-Nov-15 14:33N 38°04' W 122°12'1 0.0
2014-Nov-14 15:26N 38°03' W 122°11'3 0.4
2014-Nov-14 09:11N 38°03' W 122°15'6 7.7
2014-Nov-14 08:22N 38°01' W 122°22'7 8.6
2014-Nov-14 07:33N 37°55' W 122°25'1010.2
2014-Nov-14 06:33N 37°45' W 122°22'2 2.0
2014-Nov-14 05:33N 37°47' W 122°22'9 8.5
2014-Nov-14 04:33N 37°55' W 122°25'0 0.3
2014-Nov-14 03:34N 37°56' W 122°25'0 0.0
2014-Nov-14 02:33N 37°56' W 122°25'0 0.0
2014-Nov-14 01:33N 37°56' W 122°25'0 0.0
2014-Nov-14 00:33N 37°56' W 122°25'5 5.4
2014-Nov-13 23:33N 38°01' W 122°24'12 9.1
2014-Nov-13 22:13N 38°02' W 122°08'6 3.6
2014-Nov-13 20:33N 38°03' W 122°16'0 0.0
2014-Nov-13 19:34N 38°04' W 122°16'2 0.1
2014-Nov-12 10:21N 38°03' W 122°18'810.6
2014-Nov-12 09:33N 37°57' W 122°26'2 1.9
2014-Nov-12 08:33N 37°56' W 122°25'3 3.1
2014-Nov-12 07:33N 37°52' W 122°25'7 7.5
2014-Nov-12 06:33N 37°60' W 122°25'8 1.6
2014-Nov-12 01:33N 38°03' W 122°16'0 0.0
2014-Nov-12 00:33N 38°03' W 122°16'1 0.6
2014-Nov-11 23:22N 38°04' W 122°17'3 1.0
2014-Nov-11 20:31N 38°02' W 122°20'8 8.3
2014-Nov-11 19:33N 37°55' W 122°25'2 1.7
2014-Nov-11 18:33N 37°54' W 122°25'2 1.6
2014-Nov-11 17:33N 37°55' W 122°26'9 9.1
2014-Nov-11 16:33N 38°03' W 122°20'4 3.6
2014-Nov-11 15:19N 38°04' W 122°15'1 1.6
2014-Nov-11 14:32N 38°04' W 122°16'6 5.9
2014-Nov-11 13:29N 38°02' W 122°09'  

Dump ship's entire track history